sensor_id;sensor_type;location;lat;lon;timestamp;temperature;humidity
3262;DHT22;1643;47.746;9.000;2023-05-07T00:01:15;16.60;99.90
3262;DHT22;1643;47.746;9.000;2023-05-07T00:03:40;16.60;99.90
3262;DHT22;1643;47.746;9.000;2023-05-07T00:06:07;16.60;99.90
3262;DHT22;1643;47.746;9.000;2023-05-07T00:08:32;16.50;99.90
3262;DHT22;1643;47.746;9.000;2023-05-07T00:10:58;16.50;99.90
3262;DHT22;1643;47.746;9.000;2023-05-07T00:13:23;16.50;99.90
3262;DHT22;1643;47.746;9.000;2023-05-07T00:15:49;16.50;99.90
3262;DHT22;1643;47.746;9.000;2023-05-07T00:18:15;16.50;99.90
3262;DHT22;1643;47.746;9.000;2023-05-07T00:20:41;16.50;99.90
3262;DHT22;1643;47.746;9.000;2023-05-07T00:23:06;16.40;99.90
3262;DHT22;1643;47.746;9.000;2023-05-07T00:25:32;16.40;99.90
3262;DHT22;1643;47.746;9.000;2023-05-07T00:27:58;16.40;99.90
3262;DHT22;1643;47.746;9.000;2023-05-07T00:30:28;16.40;99.90
3262;DHT22;1643;47.746;9.000;2023-05-07T00:32:54;16.30;99.90
3262;DHT22;1643;47.746;9.000;2023-05-07T00:35:20;16.30;99.90
3262;DHT22;1643;47.746;9.000;2023-05-07T00:37:45;16.30;99.90
3262;DHT22;1643;47.746;9.000;2023-05-07T00:40:11;16.20;99.90
3262;DHT22;1643;47.746;9.000;2023-05-07T00:42:37;16.20;99.90
3262;DHT22;1643;47.746;9.000;2023-05-07T00:45:02;16.20;99.90
3262;DHT22;1643;47.746;9.000;2023-05-07T00:47:28;16.20;99.90
3262;DHT22;1643;47.746;9.000;2023-05-07T00:49:54;16.10;99.90
3262;DHT22;1643;47.746;9.000;2023-05-07T00:52:21;15.90;99.90
3262;DHT22;1643;47.746;9.000;2023-05-07T00:54:50;16.00;99.90
3262;DHT22;1643;47.746;9.000;2023-05-07T00:57:16;16.10;99.90
3262;DHT22;1643;47.746;9.000;2023-05-07T00:59:41;16.10;99.90
3262;DHT22;1643;47.746;9.000;2023-05-07T01:02:07;16.10;99.90
3262;DHT22;1643;47.746;9.000;2023-05-07T01:04:33;16.10;99.90
3262;DHT22;1643;47.746;9.000;2023-05-07T01:06:59;16.00;99.90
3262;DHT22;1643;47.746;9.000;2023-05-07T01:09:27;16.00;99.90
3262;DHT22;1643;47.746;9.000;2023-05-07T01:11:54;16.00;99.90
3262;DHT22;1643;47.746;9.000;2023-05-07T01:14:20;16.10;99.90
3262;DHT22;1643;47.746;9.000;2023-05-07T01:16:47;16.10;99.90
3262;DHT22;1643;47.746;9.000;2023-05-07T01:19:14;16.10;99.90
3262;DHT22;1643;47.746;9.000;2023-05-07T01:21:47;16.10;99.90
3262;DHT22;1643;47.746;9.000;2023-05-07T01:24:14;16.10;99.90
3262;DHT22;1643;47.746;9.000;2023-05-07T01:26:40;16.10;99.90
3262;DHT22;1643;47.746;9.000;2023-05-07T01:29:06;16.00;99.90
3262;DHT22;1643;47.746;9.000;2023-05-07T01:31:33;16.00;99.90
3262;DHT22;1643;47.746;9.000;2023-05-07T01:33:59;16.00;99.90
3262;DHT22;1643;47.746;9.000;2023-05-07T01:36:28;16.00;99.90
3262;DHT22;1643;47.746;9.000;2023-05-07T01:38:55;16.00;99.90
3262;DHT22;1643;47.746;9.000;2023-05-07T01:41:23;16.00;99.90
3262;DHT22;1643;47.746;9.000;2023-05-07T01:43:50;16.00;99.90
3262;DHT22;1643;47.746;9.000;2023-05-07T01:46:17;15.90;99.90
3262;DHT22;1643;47.746;9.000;2023-05-07T01:48:45;15.90;99.90
3262;DHT22;1643;47.746;9.000;2023-05-07T01:51:11;15.80;99.90
3262;DHT22;1643;47.746;9.000;2023-05-07T01:53:37;15.80;99.90
3262;DHT22;1643;47.746;9.000;2023-05-07T01:56:03;15.80;99.90
3262;DHT22;1643;47.746;9.000;2023-05-07T01:58:29;15.80;99.90
3262;DHT22;1643;47.746;9.000;2023-05-07T02:00:55;15.80;99.90
3262;DHT22;1643;47.746;9.000;2023-05-07T02:03:20;15.80;99.90
3262;DHT22;1643;47.746;9.000;2023-05-07T02:05:46;15.80;99.90
3262;DHT22;1643;47.746;9.000;2023-05-07T02:08:11;15.80;99.90
3262;DHT22;1643;47.746;9.000;2023-05-07T02:10:37;15.70;99.90
3262;DHT22;1643;47.746;9.000;2023-05-07T02:13:03;15.70;99.90
3262;DHT22;1643;47.746;9.000;2023-05-07T02:15:28;15.70;99.90
3262;DHT22;1643;47.746;9.000;2023-05-07T02:18:03;15.60;99.90
3262;DHT22;1643;47.746;9.000;2023-05-07T02:20:29;15.60;99.90
3262;DHT22;1643;47.746;9.000;2023-05-07T02:22:54;15.60;99.90
3262;DHT22;1643;47.746;9.000;2023-05-07T02:25:20;15.60;99.90
3262;DHT22;1643;47.746;9.000;2023-05-07T02:27:46;15.60;99.90
3262;DHT22;1643;47.746;9.000;2023-05-07T02:30:12;15.60;99.90
3262;DHT22;1643;47.746;9.000;2023-05-07T02:32:37;15.50;99.90
3262;DHT22;1643;47.746;9.000;2023-05-07T02:35:03;15.50;99.90
3262;DHT22;1643;47.746;9.000;2023-05-07T02:37:29;15.40;99.90
3262;DHT22;1643;47.746;9.000;2023-05-07T02:39:54;15.40;99.90
3262;DHT22;1643;47.746;9.000;2023-05-07T02:42:20;15.40;99.90
3262;DHT22;1643;47.746;9.000;2023-05-07T02:44:45;15.30;99.90
3262;DHT22;1643;47.746;9.000;2023-05-07T02:47:11;15.30;99.90
3262;DHT22;1643;47.746;9.000;2023-05-07T02:49:38;15.30;99.90
3262;DHT22;1643;47.746;9.000;2023-05-07T02:52:04;15.30;99.90
3262;DHT22;1643;47.746;9.000;2023-05-07T02:54:30;15.30;99.90
3262;DHT22;1643;47.746;9.000;2023-05-07T02:56:55;15.30;99.90
3262;DHT22;1643;47.746;9.000;2023-05-07T02:59:21;15.30;99.90
3262;DHT22;1643;47.746;9.000;2023-05-07T03:01:47;15.30;99.90
3262;DHT22;1643;47.746;9.000;2023-05-07T03:04:13;15.30;99.90
3262;DHT22;1643;47.746;9.000;2023-05-07T03:06:39;15.20;99.90
3262;DHT22;1643;47.746;9.000;2023-05-07T03:09:05;15.20;99.90
3262;DHT22;1643;47.746;9.000;2023-05-07T03:11:30;15.20;99.90
3262;DHT22;1643;47.746;9.000;2023-05-07T03:13:56;15.20;99.90
3262;DHT22;1643;47.746;9.000;2023-05-07T03:16:21;15.20;99.90
3262;DHT22;1643;47.746;9.000;2023-05-07T03:18:47;15.20;99.90
3262;DHT22;1643;47.746;9.000;2023-05-07T03:21:13;15.20;99.90
3262;DHT22;1643;47.746;9.000;2023-05-07T03:23:38;15.10;99.90
3262;DHT22;1643;47.746;9.000;2023-05-07T03:26:04;15.10;99.90
3262;DHT22;1643;47.746;9.000;2023-05-07T03:28:30;15.20;99.90
3262;DHT22;1643;47.746;9.000;2023-05-07T03:30:56;15.10;99.90
3262;DHT22;1643;47.746;9.000;2023-05-07T03:33:21;15.00;99.90
3262;DHT22;1643;47.746;9.000;2023-05-07T03:35:47;15.00;99.90
3262;DHT22;1643;47.746;9.000;2023-05-07T03:38:13;14.90;99.90
3262;DHT22;1643;47.746;9.000;2023-05-07T03:40:39;14.90;99.90
3262;DHT22;1643;47.746;9.000;2023-05-07T03:43:05;14.80;99.90
3262;DHT22;1643;47.746;9.000;2023-05-07T03:45:30;14.80;99.90
3262;DHT22;1643;47.746;9.000;2023-05-07T03:47:56;14.80;99.90
3262;DHT22;1643;47.746;9.000;2023-05-07T03:50:21;14.70;99.90
3262;DHT22;1643;47.746;9.000;2023-05-07T03:52:47;14.70;99.90
3262;DHT22;1643;47.746;9.000;2023-05-07T03:55:13;14.70;99.90
3262;DHT22;1643;47.746;9.000;2023-05-07T03:57:38;14.70;99.90
3262;DHT22;1643;47.746;9.000;2023-05-07T04:00:04;14.70;99.90
3262;DHT22;1643;47.746;9.000;2023-05-07T04:02:31;14.70;99.90
3262;DHT22;1643;47.746;9.000;2023-05-07T04:04:56;14.70;99.90
3262;DHT22;1643;47.746;9.000;2023-05-07T04:07:22;14.70;99.90
3262;DHT22;1643;47.746;9.000;2023-05-07T04:09:48;14.60;99.90
3262;DHT22;1643;47.746;9.000;2023-05-07T04:12:13;14.60;99.90
3262;DHT22;1643;47.746;9.000;2023-05-07T04:14:39;14.60;99.90
3262;DHT22;1643;47.746;9.000;2023-05-07T04:17:04;14.50;99.90
3262;DHT22;1643;47.746;9.000;2023-05-07T04:19:33;14.60;99.90
3262;DHT22;1643;47.746;9.000;2023-05-07T04:21:59;14.60;99.90
3262;DHT22;1643;47.746;9.000;2023-05-07T04:24:24;14.60;99.90
3262;DHT22;1643;47.746;9.000;2023-05-07T04:26:50;14.50;99.90
3262;DHT22;1643;47.746;9.000;2023-05-07T04:29:16;14.50;99.90
3262;DHT22;1643;47.746;9.000;2023-05-07T04:31:42;14.50;99.90
3262;DHT22;1643;47.746;9.000;2023-05-07T04:34:10;14.60;99.90
3262;DHT22;1643;47.746;9.000;2023-05-07T04:36:37;14.60;99.90
3262;DHT22;1643;47.746;9.000;2023-05-07T04:39:03;14.60;99.90
3262;DHT22;1643;47.746;9.000;2023-05-07T04:41:29;14.60;99.90
3262;DHT22;1643;47.746;9.000;2023-05-07T04:43:55;14.70;99.90
3262;DHT22;1643;47.746;9.000;2023-05-07T04:46:22;14.60;99.90
3262;DHT22;1643;47.746;9.000;2023-05-07T04:48:49;14.70;99.90
3262;DHT22;1643;47.746;9.000;2023-05-07T04:51:14;14.60;99.90
3262;DHT22;1643;47.746;9.000;2023-05-07T04:53:40;14.60;99.90
3262;DHT22;1643;47.746;9.000;2023-05-07T04:56:06;14.70;99.90
3262;DHT22;1643;47.746;9.000;2023-05-07T04:58:31;14.70;99.90
3262;DHT22;1643;47.746;9.000;2023-05-07T05:00:58;14.80;99.90
3262;DHT22;1643;47.746;9.000;2023-05-07T05:03:24;14.80;99.90
3262;DHT22;1643;47.746;9.000;2023-05-07T05:05:50;14.90;99.90
3262;DHT22;1643;47.746;9.000;2023-05-07T05:08:16;14.90;99.90
3262;DHT22;1643;47.746;9.000;2023-05-07T05:10:42;14.80;99.90
3262;DHT22;1643;47.746;9.000;2023-05-07T05:13:09;14.80;99.90
3262;DHT22;1643;47.746;9.000;2023-05-07T05:15:35;14.70;99.90
3262;DHT22;1643;47.746;9.000;2023-05-07T05:18:01;14.70;99.90
3262;DHT22;1643;47.746;9.000;2023-05-07T05:20:26;14.80;99.90
3262;DHT22;1643;47.746;9.000;2023-05-07T05:22:52;14.90;99.90
3262;DHT22;1643;47.746;9.000;2023-05-07T05:25:17;14.80;99.90
3262;DHT22;1643;47.746;9.000;2023-05-07T05:27:43;14.80;99.90
3262;DHT22;1643;47.746;9.000;2023-05-07T05:30:09;14.80;99.90
3262;DHT22;1643;47.746;9.000;2023-05-07T05:32:35;14.80;99.90
3262;DHT22;1643;47.746;9.000;2023-05-07T05:35:00;14.90;99.90
3262;DHT22;1643;47.746;9.000;2023-05-07T05:37:26;15.00;99.90
3262;DHT22;1643;47.746;9.000;2023-05-07T05:39:52;15.10;99.90
3262;DHT22;1643;47.746;9.000;2023-05-07T05:42:20;15.20;99.90
3262;DHT22;1643;47.746;9.000;2023-05-07T05:44:45;15.20;99.90
3262;DHT22;1643;47.746;9.000;2023-05-07T05:47:11;15.30;99.90
3262;DHT22;1643;47.746;9.000;2023-05-07T05:49:36;15.30;99.90
3262;DHT22;1643;47.746;9.000;2023-05-07T05:52:02;15.40;99.90
3262;DHT22;1643;47.746;9.000;2023-05-07T05:54:28;15.40;99.90
3262;DHT22;1643;47.746;9.000;2023-05-07T05:56:54;15.50;99.90
3262;DHT22;1643;47.746;9.000;2023-05-07T05:59:19;15.60;99.90
3262;DHT22;1643;47.746;9.000;2023-05-07T06:01:45;15.60;99.90
3262;DHT22;1643;47.746;9.000;2023-05-07T06:04:11;15.70;99.90
3262;DHT22;1643;47.746;9.000;2023-05-07T06:06:36;15.70;99.90
3262;DHT22;1643;47.746;9.000;2023-05-07T06:09:02;15.80;99.90
3262;DHT22;1643;47.746;9.000;2023-05-07T06:11:28;15.90;99.90
3262;DHT22;1643;47.746;9.000;2023-05-07T06:13:53;16.00;99.90
3262;DHT22;1643;47.746;9.000;2023-05-07T06:16:19;16.10;99.90
3262;DHT22;1643;47.746;9.000;2023-05-07T06:18:44;16.10;99.90
3262;DHT22;1643;47.746;9.000;2023-05-07T06:21:13;16.20;99.90
3262;DHT22;1643;47.746;9.000;2023-05-07T06:23:38;16.30;99.90
3262;DHT22;1643;47.746;9.000;2023-05-07T06:26:06;16.30;99.90
3262;DHT22;1643;47.746;9.000;2023-05-07T06:28:32;16.40;99.90
3262;DHT22;1643;47.746;9.000;2023-05-07T06:31:19;16.50;99.90
3262;DHT22;1643;47.746;9.000;2023-05-07T06:33:46;16.50;99.90
3262;DHT22;1643;47.746;9.000;2023-05-07T06:36:12;16.40;99.90
3262;DHT22;1643;47.746;9.000;2023-05-07T06:38:38;16.40;99.90
3262;DHT22;1643;47.746;9.000;2023-05-07T06:41:05;16.50;99.90
3262;DHT22;1643;47.746;9.000;2023-05-07T06:43:30;16.50;99.90
3262;DHT22;1643;47.746;9.000;2023-05-07T06:45:56;16.60;99.90
3262;DHT22;1643;47.746;9.000;2023-05-07T06:48:22;16.60;99.90
3262;DHT22;1643;47.746;9.000;2023-05-07T06:50:47;16.60;99.90
3262;DHT22;1643;47.746;9.000;2023-05-07T06:53:13;16.60;99.90
3262;DHT22;1643;47.746;9.000;2023-05-07T06:55:38;16.70;99.90
3262;DHT22;1643;47.746;9.000;2023-05-07T06:58:04;16.60;99.90
3262;DHT22;1643;47.746;9.000;2023-05-07T07:00:31;16.60;99.90
3262;DHT22;1643;47.746;9.000;2023-05-07T07:02:57;16.70;99.90
3262;DHT22;1643;47.746;9.000;2023-05-07T07:05:22;16.80;99.90
3262;DHT22;1643;47.746;9.000;2023-05-07T07:07:48;16.90;99.90
3262;DHT22;1643;47.746;9.000;2023-05-07T07:10:22;17.10;99.90
3262;DHT22;1643;47.746;9.000;2023-05-07T07:12:49;17.00;99.90
3262;DHT22;1643;47.746;9.000;2023-05-07T07:15:15;17.10;99.90
3262;DHT22;1643;47.746;9.000;2023-05-07T07:17:41;17.10;99.90
3262;DHT22;1643;47.746;9.000;2023-05-07T07:20:07;17.20;99.90
3262;DHT22;1643;47.746;9.000;2023-05-07T07:22:33;17.30;99.90
3262;DHT22;1643;47.746;9.000;2023-05-07T07:24:58;17.40;99.90
3262;DHT22;1643;47.746;9.000;2023-05-07T07:27:24;17.50;99.90
3262;DHT22;1643;47.746;9.000;2023-05-07T07:29:50;17.60;99.90
3262;DHT22;1643;47.746;9.000;2023-05-07T07:32:15;17.70;99.90
3262;DHT22;1643;47.746;9.000;2023-05-07T07:34:41;17.60;99.90
3262;DHT22;1643;47.746;9.000;2023-05-07T07:37:06;17.50;99.90
3262;DHT22;1643;47.746;9.000;2023-05-07T07:39:32;17.60;99.90
3262;DHT22;1643;47.746;9.000;2023-05-07T07:41:58;17.60;99.90
3262;DHT22;1643;47.746;9.000;2023-05-07T07:44:24;17.60;99.90
3262;DHT22;1643;47.746;9.000;2023-05-07T07:46:50;17.60;99.90
3262;DHT22;1643;47.746;9.000;2023-05-07T07:49:16;17.80;99.90
3262;DHT22;1643;47.746;9.000;2023-05-07T07:51:41;17.80;99.90
3262;DHT22;1643;47.746;9.000;2023-05-07T07:54:07;17.90;99.90
3262;DHT22;1643;47.746;9.000;2023-05-07T07:56:33;17.90;99.90
3262;DHT22;1643;47.746;9.000;2023-05-07T07:58:59;18.00;99.90
3262;DHT22;1643;47.746;9.000;2023-05-07T08:01:25;18.10;99.90
3262;DHT22;1643;47.746;9.000;2023-05-07T08:03:51;18.20;99.90
3262;DHT22;1643;47.746;9.000;2023-05-07T08:06:17;18.30;99.90
3262;DHT22;1643;47.746;9.000;2023-05-07T08:08:42;18.40;99.90
3262;DHT22;1643;47.746;9.000;2023-05-07T08:11:08;18.50;99.90
3262;DHT22;1643;47.746;9.000;2023-05-07T08:13:34;18.50;99.90
3262;DHT22;1643;47.746;9.000;2023-05-07T08:16:00;18.60;99.90
3262;DHT22;1643;47.746;9.000;2023-05-07T08:18:26;18.50;99.90
3262;DHT22;1643;47.746;9.000;2023-05-07T08:20:53;18.50;99.90
3262;DHT22;1643;47.746;9.000;2023-05-07T08:23:19;18.50;99.90
3262;DHT22;1643;47.746;9.000;2023-05-07T08:25:45;18.60;99.90
3262;DHT22;1643;47.746;9.000;2023-05-07T08:28:10;18.70;99.90
3262;DHT22;1643;47.746;9.000;2023-05-07T08:30:36;18.70;99.90
3262;DHT22;1643;47.746;9.000;2023-05-07T08:33:02;18.70;99.90
3262;DHT22;1643;47.746;9.000;2023-05-07T08:35:27;18.60;99.90
3262;DHT22;1643;47.746;9.000;2023-05-07T08:37:53;18.60;99.90
3262;DHT22;1643;47.746;9.000;2023-05-07T08:40:20;18.50;99.90
3262;DHT22;1643;47.746;9.000;2023-05-07T08:42:48;18.60;99.90
3262;DHT22;1643;47.746;9.000;2023-05-07T08:45:15;18.50;99.90
3262;DHT22;1643;47.746;9.000;2023-05-07T08:47:46;18.60;99.90
3262;DHT22;1643;47.746;9.000;2023-05-07T08:50:12;18.50;99.90
3262;DHT22;1643;47.746;9.000;2023-05-07T08:52:39;18.60;99.90
3262;DHT22;1643;47.746;9.000;2023-05-07T08:55:07;18.60;99.90
3262;DHT22;1643;47.746;9.000;2023-05-07T08:57:32;18.60;99.90
3262;DHT22;1643;47.746;9.000;2023-05-07T08:59:58;18.70;99.90
3262;DHT22;1643;47.746;9.000;2023-05-07T09:02:24;18.80;99.90
3262;DHT22;1643;47.746;9.000;2023-05-07T09:04:49;19.00;99.90
3262;DHT22;1643;47.746;9.000;2023-05-07T09:07:16;19.10;99.90
3262;DHT22;1643;47.746;9.000;2023-05-07T09:09:44;19.20;99.90
3262;DHT22;1643;47.746;9.000;2023-05-07T09:12:09;19.20;99.90
3262;DHT22;1643;47.746;9.000;2023-05-07T09:14:35;19.30;99.90
3262;DHT22;1643;47.746;9.000;2023-05-07T09:17:01;19.40;99.90
3262;DHT22;1643;47.746;9.000;2023-05-07T09:19:27;19.30;99.90
3262;DHT22;1643;47.746;9.000;2023-05-07T09:22:03;19.30;99.90
3262;DHT22;1643;47.746;9.000;2023-05-07T09:24:29;19.30;99.90
3262;DHT22;1643;47.746;9.000;2023-05-07T09:27:01;19.30;99.90
3262;DHT22;1643;47.746;9.000;2023-05-07T09:29:28;19.30;99.90
3262;DHT22;1643;47.746;9.000;2023-05-07T09:31:55;19.30;99.90
3262;DHT22;1643;47.746;9.000;2023-05-07T09:34:21;19.30;99.90
3262;DHT22;1643;47.746;9.000;2023-05-07T09:36:47;19.40;99.90
3262;DHT22;1643;47.746;9.000;2023-05-07T09:39:13;19.30;99.90
3262;DHT22;1643;47.746;9.000;2023-05-07T09:41:47;19.30;99.90
3262;DHT22;1643;47.746;9.000;2023-05-07T09:44:15;19.30;99.90
3262;DHT22;1643;47.746;9.000;2023-05-07T09:46:43;19.20;99.90
3262;DHT22;1643;47.746;9.000;2023-05-07T09:49:18;19.30;99.90
3262;DHT22;1643;47.746;9.000;2023-05-07T09:51:52;19.30;99.90
3262;DHT22;1643;47.746;9.000;2023-05-07T09:54:18;19.40;99.90
3262;DHT22;1643;47.746;9.000;2023-05-07T09:56:48;19.40;99.90
3262;DHT22;1643;47.746;9.000;2023-05-07T09:59:16;19.40;99.90
3262;DHT22;1643;47.746;9.000;2023-05-07T10:01:43;19.40;99.90
3262;DHT22;1643;47.746;9.000;2023-05-07T10:04:10;19.50;99.90
3262;DHT22;1643;47.746;9.000;2023-05-07T10:06:37;19.40;99.90
3262;DHT22;1643;47.746;9.000;2023-05-07T10:09:06;19.50;99.90
3262;DHT22;1643;47.746;9.000;2023-05-07T10:11:33;19.60;99.90
3262;DHT22;1643;47.746;9.000;2023-05-07T10:13:59;19.70;99.90
3262;DHT22;1643;47.746;9.000;2023-05-07T10:16:34;19.80;99.90
3262;DHT22;1643;47.746;9.000;2023-05-07T10:19:05;19.80;99.90
3262;DHT22;1643;47.746;9.000;2023-05-07T10:21:35;19.70;99.90
3262;DHT22;1643;47.746;9.000;2023-05-07T10:24:22;19.70;99.90
3262;DHT22;1643;47.746;9.000;2023-05-07T10:26:51;19.80;99.90
3262;DHT22;1643;47.746;9.000;2023-05-07T10:31:59;19.80;99.90
3262;DHT22;1643;47.746;9.000;2023-05-07T10:34:37;19.90;99.90
3262;DHT22;1643;47.746;9.000;2023-05-07T10:37:04;20.00;99.90
3262;DHT22;1643;47.746;9.000;2023-05-07T10:39:31;20.00;99.90
3262;DHT22;1643;47.746;9.000;2023-05-07T10:41:56;20.10;99.90
3262;DHT22;1643;47.746;9.000;2023-05-07T10:44:26;20.20;99.90
3262;DHT22;1643;47.746;9.000;2023-05-07T10:49:31;20.30;99.90
3262;DHT22;1643;47.746;9.000;2023-05-07T10:52:23;20.30;99.90
3262;DHT22;1643;47.746;9.000;2023-05-07T10:57:46;20.40;99.90
3262;DHT22;1643;47.746;9.000;2023-05-07T11:05:29;20.70;99.90
3262;DHT22;1643;47.746;9.000;2023-05-07T11:07:56;20.70;99.90
3262;DHT22;1643;47.746;9.000;2023-05-07T11:10:22;20.80;99.90
3262;DHT22;1643;47.746;9.000;2023-05-07T11:12:52;20.80;99.90
3262;DHT22;1643;47.746;9.000;2023-05-07T11:15:40;20.80;99.90
3262;DHT22;1643;47.746;9.000;2023-05-07T11:18:07;20.80;99.90
3262;DHT22;1643;47.746;9.000;2023-05-07T11:20:56;20.90;99.90
3262;DHT22;1643;47.746;9.000;2023-05-07T11:26:04;20.80;99.90
3262;DHT22;1643;47.746;9.000;2023-05-07T11:28:36;20.90;99.90
3262;DHT22;1643;47.746;9.000;2023-05-07T11:31:02;21.10;99.90
3262;DHT22;1643;47.746;9.000;2023-05-07T11:33:29;21.20;99.90
3262;DHT22;1643;47.746;9.000;2023-05-07T11:35:56;21.30;99.90
3262;DHT22;1643;47.746;9.000;2023-05-07T11:38:22;21.40;99.90
3262;DHT22;1643;47.746;9.000;2023-05-07T11:40:52;21.40;99.90
3262;DHT22;1643;47.746;9.000;2023-05-07T11:43:18;21.50;99.90
3262;DHT22;1643;47.746;9.000;2023-05-07T11:45:48;21.60;99.90
3262;DHT22;1643;47.746;9.000;2023-05-07T11:48:14;21.60;99.90
3262;DHT22;1643;47.746;9.000;2023-05-07T11:51:09;21.60;99.90
3262;DHT22;1643;47.746;9.000;2023-05-07T11:53:42;21.80;99.90
3262;DHT22;1643;47.746;9.000;2023-05-07T11:56:13;21.60;99.90
3262;DHT22;1643;47.746;9.000;2023-05-07T11:58:39;21.60;99.90
3262;DHT22;1643;47.746;9.000;2023-05-07T12:01:08;21.60;99.90
3262;DHT22;1643;47.746;9.000;2023-05-07T12:03:39;21.60;99.90
3262;DHT22;1643;47.746;9.000;2023-05-07T12:06:08;21.70;99.90
3262;DHT22;1643;47.746;9.000;2023-05-07T12:08:36;21.60;99.90
3262;DHT22;1643;47.746;9.000;2023-05-07T12:11:03;21.60;99.90
3262;DHT22;1643;47.746;9.000;2023-05-07T12:13:32;21.60;99.90
3262;DHT22;1643;47.746;9.000;2023-05-07T12:15:57;21.60;99.90
3262;DHT22;1643;47.746;9.000;2023-05-07T12:18:23;21.60;99.90
3262;DHT22;1643;47.746;9.000;2023-05-07T12:20:50;21.50;99.90
3262;DHT22;1643;47.746;9.000;2023-05-07T12:23:16;21.60;99.90
3262;DHT22;1643;47.746;9.000;2023-05-07T12:25:43;21.60;99.90
3262;DHT22;1643;47.746;9.000;2023-05-07T12:28:16;21.40;99.90
3262;DHT22;1643;47.746;9.000;2023-05-07T12:30:46;21.50;99.90
3262;DHT22;1643;47.746;9.000;2023-05-07T12:33:15;21.60;99.90
3262;DHT22;1643;47.746;9.000;2023-05-07T12:35:42;21.60;99.90
3262;DHT22;1643;47.746;9.000;2023-05-07T12:38:16;21.70;99.90
3262;DHT22;1643;47.746;9.000;2023-05-07T12:40:47;21.70;99.90
3262;DHT22;1643;47.746;9.000;2023-05-07T12:45:47;21.70;99.90
3262;DHT22;1643;47.746;9.000;2023-05-07T12:48:13;21.80;99.90
3262;DHT22;1643;47.746;9.000;2023-05-07T12:50:39;21.70;99.90
3262;DHT22;1643;47.746;9.000;2023-05-07T12:53:06;21.70;99.90
3262;DHT22;1643;47.746;9.000;2023-05-07T12:55:47;21.70;99.90
3262;DHT22;1643;47.746;9.000;2023-05-07T12:58:27;21.70;99.90
3262;DHT22;1643;47.746;9.000;2023-05-07T13:00:54;21.70;99.90
3262;DHT22;1643;47.746;9.000;2023-05-07T13:05:52;22.10;99.90
3262;DHT22;1643;47.746;9.000;2023-05-07T13:08:47;22.20;99.90
3262;DHT22;1643;47.746;9.000;2023-05-07T13:11:13;22.40;99.90
3262;DHT22;1643;47.746;9.000;2023-05-07T13:13:40;22.50;99.90
3262;DHT22;1643;47.746;9.000;2023-05-07T13:16:07;22.70;99.90
3262;DHT22;1643;47.746;9.000;2023-05-07T13:18:34;22.80;99.90
3262;DHT22;1643;47.746;9.000;2023-05-07T13:21:00;22.70;99.90
3262;DHT22;1643;47.746;9.000;2023-05-07T13:23:26;22.70;99.90
3262;DHT22;1643;47.746;9.000;2023-05-07T13:25:52;22.80;99.90
3262;DHT22;1643;47.746;9.000;2023-05-07T13:28:19;22.70;99.90
3262;DHT22;1643;47.746;9.000;2023-05-07T13:30:45;22.80;99.90
3262;DHT22;1643;47.746;9.000;2023-05-07T13:33:11;23.00;99.90
3262;DHT22;1643;47.746;9.000;2023-05-07T13:35:37;23.20;99.90
3262;DHT22;1643;47.746;9.000;2023-05-07T13:38:03;22.80;99.90
3262;DHT22;1643;47.746;9.000;2023-05-07T13:40:29;22.70;99.90
3262;DHT22;1643;47.746;9.000;2023-05-07T13:42:57;22.60;99.90
3262;DHT22;1643;47.746;9.000;2023-05-07T13:45:24;22.60;99.90
3262;DHT22;1643;47.746;9.000;2023-05-07T13:47:51;22.50;99.90
3262;DHT22;1643;47.746;9.000;2023-05-07T13:50:17;22.50;99.90
3262;DHT22;1643;47.746;9.000;2023-05-07T13:52:43;22.40;99.90
3262;DHT22;1643;47.746;9.000;2023-05-07T13:55:16;22.50;99.90
3262;DHT22;1643;47.746;9.000;2023-05-07T13:57:42;22.60;99.90
3262;DHT22;1643;47.746;9.000;2023-05-07T14:00:09;22.80;99.90
3262;DHT22;1643;47.746;9.000;2023-05-07T14:02:34;22.90;99.90
3262;DHT22;1643;47.746;9.000;2023-05-07T14:05:00;22.90;99.90
3262;DHT22;1643;47.746;9.000;2023-05-07T14:07:26;22.90;99.90
3262;DHT22;1643;47.746;9.000;2023-05-07T14:09:51;22.60;99.90
3262;DHT22;1643;47.746;9.000;2023-05-07T14:12:17;22.50;99.90
3262;DHT22;1643;47.746;9.000;2023-05-07T14:14:42;22.60;99.90
3262;DHT22;1643;47.746;9.000;2023-05-07T14:17:08;22.70;99.90
3262;DHT22;1643;47.746;9.000;2023-05-07T14:19:34;22.70;99.90
3262;DHT22;1643;47.746;9.000;2023-05-07T14:21:59;22.60;99.90
3262;DHT22;1643;47.746;9.000;2023-05-07T14:24:25;22.70;99.90
3262;DHT22;1643;47.746;9.000;2023-05-07T14:26:51;22.80;99.90
3262;DHT22;1643;47.746;9.000;2023-05-07T14:29:17;22.80;99.90
3262;DHT22;1643;47.746;9.000;2023-05-07T14:31:44;22.80;99.90
3262;DHT22;1643;47.746;9.000;2023-05-07T14:34:10;22.80;99.90
3262;DHT22;1643;47.746;9.000;2023-05-07T14:36:36;22.50;99.90
3262;DHT22;1643;47.746;9.000;2023-05-07T14:39:03;22.60;99.90
3262;DHT22;1643;47.746;9.000;2023-05-07T14:41:29;22.50;99.90
3262;DHT22;1643;47.746;9.000;2023-05-07T14:43:55;22.60;99.90
3262;DHT22;1643;47.746;9.000;2023-05-07T14:46:20;22.90;99.90
3262;DHT22;1643;47.746;9.000;2023-05-07T14:48:46;23.00;99.90
3262;DHT22;1643;47.746;9.000;2023-05-07T14:51:12;23.10;99.90
3262;DHT22;1643;47.746;9.000;2023-05-07T14:53:38;23.20;99.90
3262;DHT22;1643;47.746;9.000;2023-05-07T14:56:05;23.40;99.90
3262;DHT22;1643;47.746;9.000;2023-05-07T14:58:31;23.70;99.90
3262;DHT22;1643;47.746;9.000;2023-05-07T15:00:56;23.70;99.90
3262;DHT22;1643;47.746;9.000;2023-05-07T15:03:22;23.90;99.90
3262;DHT22;1643;47.746;9.000;2023-05-07T15:05:48;23.90;99.90
3262;DHT22;1643;47.746;9.000;2023-05-07T15:08:17;23.90;99.90
3262;DHT22;1643;47.746;9.000;2023-05-07T15:10:42;23.90;99.90
3262;DHT22;1643;47.746;9.000;2023-05-07T15:13:09;24.00;99.90
3262;DHT22;1643;47.746;9.000;2023-05-07T15:15:35;24.00;99.90
3262;DHT22;1643;47.746;9.000;2023-05-07T15:18:01;24.00;99.90
3262;DHT22;1643;47.746;9.000;2023-05-07T15:20:27;23.70;99.90
3262;DHT22;1643;47.746;9.000;2023-05-07T15:22:53;23.50;99.90
3262;DHT22;1643;47.746;9.000;2023-05-07T15:25:18;23.30;99.90
3262;DHT22;1643;47.746;9.000;2023-05-07T15:27:45;23.20;99.80
3262;DHT22;1643;47.746;9.000;2023-05-07T15:30:11;22.90;99.90
3262;DHT22;1643;47.746;9.000;2023-05-07T15:32:37;22.80;99.90
3262;DHT22;1643;47.746;9.000;2023-05-07T15:35:04;22.60;99.90
3262;DHT22;1643;47.746;9.000;2023-05-07T15:37:30;22.50;99.90
3262;DHT22;1643;47.746;9.000;2023-05-07T15:39:56;22.30;99.90
3262;DHT22;1643;47.746;9.000;2023-05-07T15:42:22;22.20;99.90
3262;DHT22;1643;47.746;9.000;2023-05-07T15:44:48;22.10;99.90
3262;DHT22;1643;47.746;9.000;2023-05-07T15:47:14;22.10;99.90
3262;DHT22;1643;47.746;9.000;2023-05-07T15:49:41;22.10;99.90
3262;DHT22;1643;47.746;9.000;2023-05-07T15:52:07;22.00;99.90
3262;DHT22;1643;47.746;9.000;2023-05-07T15:54:32;22.00;99.90
3262;DHT22;1643;47.746;9.000;2023-05-07T15:56:58;21.90;99.90
3262;DHT22;1643;47.746;9.000;2023-05-07T15:59:23;21.90;99.90
3262;DHT22;1643;47.746;9.000;2023-05-07T16:01:49;21.80;99.90
3262;DHT22;1643;47.746;9.000;2023-05-07T16:04:15;21.80;99.90
3262;DHT22;1643;47.746;9.000;2023-05-07T16:06:41;21.60;99.90
3262;DHT22;1643;47.746;9.000;2023-05-07T16:09:06;21.60;99.90
3262;DHT22;1643;47.746;9.000;2023-05-07T16:11:34;21.50;99.90
3262;DHT22;1643;47.746;9.000;2023-05-07T16:14:00;21.40;99.90
3262;DHT22;1643;47.746;9.000;2023-05-07T16:16:26;21.40;99.90
3262;DHT22;1643;47.746;9.000;2023-05-07T16:18:55;21.30;99.90
3262;DHT22;1643;47.746;9.000;2023-05-07T16:21:20;21.30;99.90